NV50 weather

Goldfield Airport
Goldfield, Nevada, United States

Public forecast

Using degrees Fahrenheit for public forecast. Weather courtesy of forecast.io.

Closest aviation weather report (METAR) to Goldfield Airport

Closest report is Tonopah Airport, 21.5 nm (39.7 km) NNE. Retrieved 2020/08/03 11:56 UTC (37 minutes ago):

KTPH 031156Z AUTO 33006KT 10SM CLR 17/M11 A3017 RMK AO2 SLP126 T01721106 10272 20172 53006

Closest aviation forecast (TAF) to Goldfield Airport

Closest forecast is Tonopah Airport, 21.5 nm (39.7 km) NNE. Retrieved 2020/08/03 12:22 UTC (11 minutes ago):

TAF KTPH 031120Z 0312/0412 36010KT P6SM SKC FM032000 31010G20KT P6SM SKC FM040600 36006KT P6SM SKC